createdAt,value
2022-11-05T00:00:01.904Z,8.50
2022-11-05T00:04:50.333Z,6.90
2022-11-05T00:09:16.026Z,6.40
2022-11-05T00:13:41.276Z,7.10
2022-11-05T00:17:49.588Z,5.40
2022-11-05T00:22:15.079Z,4.80
2022-11-05T00:26:22.558Z,4.50
2022-11-05T00:30:31.874Z,5.40
2022-11-05T00:34:39.327Z,5.30
2022-11-05T00:38:47.542Z,5.20
2022-11-05T00:43:12.525Z,5.90
2022-11-05T00:47:39.582Z,5.30
2022-11-05T00:51:48.102Z,5.20
2022-11-05T00:55:55.515Z,6.10
2022-11-05T01:00:03.212Z,5.90
2022-11-05T01:04:11.598Z,5.80
2022-11-05T01:08:21.285Z,5.60
2022-11-05T01:12:29.134Z,5.40
2022-11-05T01:16:38.041Z,5.70
2022-11-05T01:20:45.985Z,4.80
2022-11-05T01:24:53.987Z,5.40
2022-11-05T01:29:02.044Z,5.30
2022-11-05T01:33:10.428Z,5.00
2022-11-05T01:37:18.456Z,5.10
2022-11-05T01:41:26.409Z,6.60
2022-11-05T01:45:34.180Z,4.60
2022-11-05T01:49:41.861Z,4.50
2022-11-05T01:53:52.295Z,6.40
2022-11-05T01:58:00.945Z,6.00
2022-11-05T02:02:10.206Z,6.50
2022-11-05T02:06:22.098Z,4.30
2022-11-05T02:10:30.777Z,5.40
2022-11-05T02:14:38.182Z,4.60
2022-11-05T02:18:52.616Z,5.00
2022-11-05T02:23:20.307Z,4.00
2022-11-05T02:27:53.985Z,4.20
2022-11-05T02:32:05.713Z,5.10
2022-11-05T02:36:35.644Z,5.20
2022-11-05T02:40:51.559Z,4.70
2022-11-05T02:45:02.164Z,4.00
2022-11-05T02:49:20.009Z,4.40
2022-11-05T02:53:34.347Z,4.80
2022-11-05T02:57:47.348Z,4.30
2022-11-05T03:01:55.931Z,4.90
2022-11-05T03:06:20.415Z,4.80
2022-11-05T03:10:43.467Z,5.20
2022-11-05T03:14:57.837Z,4.60
2022-11-05T03:19:12.175Z,4.40
2022-11-05T03:23:26.112Z,5.40
2022-11-05T03:27:35.840Z,4.90
2022-11-05T03:31:44.924Z,4.70
2022-11-05T03:35:56.195Z,4.60
2022-11-05T03:40:05.732Z,4.60
2022-11-05T03:44:15.711Z,4.80
2022-11-05T03:48:24.035Z,4.00
2022-11-05T03:52:35.260Z,5.90
2022-11-05T03:56:45.338Z,4.10
2022-11-05T04:00:54.028Z,3.50
2022-11-05T04:05:01.639Z,3.50
2022-11-05T04:09:26.606Z,3.70
2022-11-05T04:13:37.390Z,5.10
2022-11-05T04:17:45.169Z,5.00
2022-11-05T04:22:10.426Z,4.80
2022-11-05T04:26:23.751Z,4.60
2022-11-05T04:30:31.483Z,4.80
2022-11-05T04:34:39.013Z,5.00
2022-11-05T04:38:47.073Z,5.70
2022-11-05T04:42:57.094Z,4.20
2022-11-05T04:47:04.650Z,4.80
2022-11-05T04:51:12.867Z,5.50
2022-11-05T04:55:21.459Z,5.20
2022-11-05T04:59:30.465Z,5.10
2022-11-05T05:03:39.456Z,5.30
2022-11-05T05:07:48.007Z,6.20
2022-11-05T05:11:55.560Z,5.80
2022-11-05T05:16:08.821Z,5.10
2022-11-05T05:20:34.549Z,5.60
2022-11-05T05:24:42.471Z,5.40
2022-11-05T05:28:51.470Z,5.80
2022-11-05T05:33:01.023Z,6.90
2022-11-05T05:37:08.819Z,5.70
2022-11-05T05:41:18.371Z,6.30
2022-11-05T05:45:26.541Z,7.50
2022-11-05T05:49:34.332Z,5.40
2022-11-05T05:53:42.030Z,5.30
2022-11-05T05:57:49.206Z,9.00
2022-11-05T06:01:57.493Z,5.60
2022-11-05T06:06:08.187Z,5.90
2022-11-05T06:10:17.264Z,4.80
2022-11-05T06:14:25.528Z,5.80
2022-11-05T06:18:33.090Z,4.80
2022-11-05T06:25:15.682Z,5.10
2022-11-05T06:29:24.332Z,6.10
2022-11-05T06:33:32.577Z,5.10
2022-11-05T06:37:40.748Z,5.10
2022-11-05T06:42:16.747Z,5.50
2022-11-05T06:46:15.872Z,5.30
2022-11-05T06:50:23.615Z,4.60
2022-11-05T06:54:32.590Z,5.30
2022-11-05T06:58:40.243Z,5.40
2022-11-05T07:02:48.928Z,5.80
2022-11-05T07:07:01.076Z,6.90
2022-11-05T07:11:13.363Z,9.10
2022-11-05T07:15:21.243Z,38.50
2022-11-05T07:19:28.723Z,21.40
2022-11-05T07:23:36.310Z,11.40
2022-11-05T07:27:44.766Z,9.60
2022-11-05T07:31:52.193Z,9.10
2022-11-05T07:36:00.934Z,9.70
2022-11-05T07:40:10.995Z,8.40
2022-11-05T07:44:19.123Z,8.60
2022-11-05T07:48:26.859Z,8.30
2022-11-05T07:52:35.550Z,8.30
2022-11-05T07:56:43.436Z,8.60
2022-11-05T08:00:51.123Z,7.60
2022-11-05T08:04:59.528Z,8.40
2022-11-05T08:09:08.579Z,9.50
2022-11-05T08:13:16.909Z,8.60
2022-11-05T08:17:24.513Z,7.90
2022-11-05T08:21:31.823Z,8.90
2022-11-05T08:25:40.161Z,7.30
2022-11-05T08:29:49.123Z,8.00
2022-11-05T08:34:02.173Z,8.60
2022-11-05T08:38:13.732Z,7.40
2022-11-05T08:42:21.981Z,5.70
2022-11-05T08:46:29.994Z,6.70
2022-11-05T08:50:38.565Z,7.40
2022-11-05T08:54:46.182Z,6.60
2022-11-05T08:58:53.497Z,6.40
2022-11-05T09:03:03.965Z,8.20
2022-11-05T09:07:12.162Z,9.20
2022-11-05T09:11:19.739Z,6.80
2022-11-05T09:15:28.239Z,6.90
2022-11-05T09:19:39.833Z,7.50
2022-11-05T09:23:48.540Z,7.90
2022-11-05T09:27:56.758Z,7.10
2022-11-05T09:32:09.981Z,7.50
2022-11-05T09:36:18.248Z,8.30
2022-11-05T09:40:26.802Z,6.90
2022-11-05T09:44:38.394Z,8.90
2022-11-05T09:48:47.716Z,9.70
2022-11-05T09:52:55.351Z,7.60
2022-11-05T09:57:04.929Z,7.40
2022-11-05T10:01:15.984Z,7.60
2022-11-05T10:05:24.374Z,7.40
2022-11-05T10:09:35.640Z,7.80
2022-11-05T10:13:46.180Z,6.60
2022-11-05T10:17:58.273Z,7.30
2022-11-05T10:22:13.445Z,8.90
2022-11-05T10:26:23.442Z,8.40
2022-11-05T10:30:31.304Z,6.90
2022-11-05T10:34:40.592Z,6.70
2022-11-05T10:38:48.837Z,11.30
2022-11-05T10:43:04.629Z,7.70
2022-11-05T10:47:31.387Z,8.60
2022-11-05T10:51:39.196Z,8.20
2022-11-05T10:55:48.361Z,9.40
2022-11-05T10:59:55.711Z,8.80
2022-11-05T11:04:22.577Z,8.60
2022-11-05T11:08:31.031Z,8.40
2022-11-05T11:12:41.612Z,8.00
2022-11-05T11:16:50.839Z,9.50
2022-11-05T11:21:08.855Z,9.10
2022-11-05T11:25:27.950Z,9.30
2022-11-05T11:29:41.980Z,8.60
2022-11-05T11:33:57.247Z,8.10
2022-11-05T11:38:05.287Z,10.20
2022-11-05T11:42:24.894Z,9.30
2022-11-05T11:46:34.597Z,7.80
2022-11-05T11:50:44.532Z,9.60
2022-11-05T11:54:53.332Z,7.70
2022-11-05T11:59:05.622Z,10.10
2022-11-05T12:03:27.116Z,10.30
2022-11-05T12:07:44.819Z,8.90
2022-11-05T12:12:00.335Z,10.20
2022-11-05T12:16:13.417Z,9.70
2022-11-05T12:20:30.264Z,13.80
2022-11-05T12:24:57.542Z,11.90
2022-11-05T12:29:32.844Z,9.20
2022-11-05T12:33:51.265Z,10.50
2022-11-05T12:38:08.179Z,9.60
2022-11-05T12:42:29.020Z,10.40
2022-11-05T12:46:41.894Z,8.40
2022-11-05T12:50:54.599Z,11.40
2022-11-05T12:55:09.694Z,10.20
2022-11-05T12:59:20.923Z,10.90
2022-11-05T13:03:38.091Z,9.60
2022-11-05T13:07:51.008Z,9.40
2022-11-05T13:12:01.016Z,9.80
2022-11-05T13:16:12.289Z,10.90
2022-11-05T13:20:23.633Z,11.70
2022-11-05T13:24:36.161Z,9.30
2022-11-05T13:28:49.368Z,9.90
2022-11-05T13:33:01.608Z,10.60
2022-11-05T13:37:28.276Z,12.50
2022-11-05T13:41:45.032Z,14.40
2022-11-05T13:46:18.280Z,14.90
2022-11-05T13:51:02.524Z,10.00
2022-11-05T13:55:37.878Z,10.30
2022-11-05T13:59:58.692Z,11.30
2022-11-05T14:04:08.741Z,11.00
2022-11-05T14:08:21.382Z,12.80
2022-11-05T14:12:33.435Z,10.70
2022-11-05T14:16:52.459Z,14.40
2022-11-05T14:21:04.648Z,12.60
2022-11-05T14:26:01.098Z,10.00
2022-11-05T14:30:41.097Z,10.70
2022-11-05T14:34:55.192Z,12.60
2022-11-05T14:39:16.084Z,9.10
2022-11-05T14:43:26.906Z,10.80
2022-11-05T14:47:37.485Z,11.10
2022-11-05T14:51:47.626Z,9.30
2022-11-05T14:56:02.414Z,10.30
2022-11-05T15:00:45.049Z,11.70
2022-11-05T15:04:53.457Z,12.00
2022-11-05T15:09:22.975Z,11.30
2022-11-05T15:13:35.130Z,14.60
2022-11-05T15:17:51.752Z,14.00
2022-11-05T15:22:01.286Z,14.90
2022-11-05T15:26:14.149Z,14.50
2022-11-05T15:30:23.858Z,12.70
2022-11-05T15:34:32.671Z,18.40
2022-11-05T15:38:51.978Z,18.50
2022-11-05T15:43:16.645Z,18.80
2022-11-05T15:47:26.563Z,16.60
2022-11-05T15:51:38.039Z,19.10
2022-11-05T15:55:53.463Z,12.80
2022-11-05T16:00:02.579Z,11.40
2022-11-05T16:04:18.514Z,21.90
2022-11-05T16:08:28.509Z,41.10
2022-11-05T16:12:37.883Z,58.60
2022-11-05T16:16:52.058Z,65.40
2022-11-05T16:21:08.957Z,57.70
2022-11-05T16:25:30.481Z,47.80
2022-11-05T16:29:40.153Z,37.90
2022-11-05T16:33:48.548Z,36.30
2022-11-05T16:37:56.134Z,38.30
2022-11-05T16:42:03.849Z,36.40
2022-11-05T16:46:15.790Z,36.00
2022-11-05T16:50:26.503Z,38.60
2022-11-05T16:54:34.502Z,33.70
2022-11-05T16:58:46.895Z,30.90
2022-11-05T17:02:55.790Z,23.70
2022-11-05T17:07:03.940Z,24.50
2022-11-05T17:11:12.888Z,25.40
2022-11-05T17:15:23.488Z,23.70
2022-11-05T17:19:31.360Z,25.70
2022-11-05T17:23:39.421Z,34.30
2022-11-05T17:27:47.215Z,32.90
2022-11-05T17:31:55.244Z,28.80
2022-11-05T17:36:07.214Z,26.90
2022-11-05T17:40:20.156Z,28.50
2022-11-05T17:44:27.689Z,30.10
2022-11-05T17:48:35.825Z,29.50
2022-11-05T17:52:44.229Z,29.20
2022-11-05T17:56:52.301Z,27.10
2022-11-05T18:00:59.527Z,28.60
2022-11-05T18:05:14.196Z,33.00
2022-11-05T18:09:23.382Z,38.60
2022-11-05T18:13:31.084Z,46.00
2022-11-05T18:17:39.256Z,47.20
2022-11-05T18:21:48.460Z,38.50
2022-11-05T18:25:57.827Z,40.30
2022-11-05T18:30:08.005Z,57.70
2022-11-05T18:34:16.553Z,64.50
2022-11-05T18:38:24.723Z,42.70
2022-11-05T18:42:33.192Z,34.60
2022-11-05T18:46:57.773Z,32.00
2022-11-05T18:51:10.910Z,28.90
2022-11-05T18:55:19.190Z,31.60
2022-11-05T18:59:37.745Z,30.30
2022-11-05T19:03:49.429Z,28.30
2022-11-05T19:07:57.668Z,26.20
2022-11-05T19:12:10.346Z,24.10
2022-11-05T19:16:20.017Z,23.80
2022-11-05T19:20:29.649Z,31.30
2022-11-05T19:24:39.676Z,25.60
2022-11-05T19:28:47.595Z,24.70
2022-11-05T19:32:55.464Z,26.70
2022-11-05T19:37:06.879Z,22.30
2022-11-05T19:41:18.520Z,23.40
2022-11-05T19:49:53.655Z,24.70
2022-11-05T19:54:01.805Z,31.90
2022-11-05T19:58:11.128Z,36.20
2022-11-05T20:02:20.442Z,33.30
2022-11-05T20:06:32.063Z,39.40
2022-11-05T20:10:41.289Z,44.10
2022-11-05T20:14:49.370Z,42.10
2022-11-05T20:18:58.742Z,57.40
2022-11-05T20:23:35.190Z,55.20
2022-11-05T20:27:45.282Z,78.70
2022-11-05T20:31:53.988Z,108.20
2022-11-05T20:36:09.167Z,165.20
2022-11-05T20:40:17.734Z,177.50
2022-11-05T20:44:25.721Z,207.60
2022-11-05T20:48:35.372Z,134.60
2022-11-05T20:52:42.929Z,76.30
2022-11-05T20:56:50.406Z,46.80
2022-11-05T21:00:59.320Z,34.80
2022-11-05T21:05:08.407Z,35.50
2022-11-05T21:09:16.884Z,36.80
2022-11-05T21:13:25.049Z,49.80
2022-11-05T21:17:32.494Z,85.30
2022-11-05T21:21:41.411Z,70.40
2022-11-05T21:25:49.351Z,93.50
2022-11-05T21:29:57.081Z,81.60
2022-11-05T21:34:07.383Z,94.20
2022-11-05T21:38:17.314Z,89.40
2022-11-05T21:42:24.978Z,78.20
2022-11-05T21:46:32.669Z,82.50
2022-11-05T21:51:01.117Z,83.00
2022-11-05T21:55:28.195Z,51.10
2022-11-05T21:59:52.422Z,34.60
2022-11-05T22:04:03.030Z,36.90
2022-11-05T22:08:11.976Z,32.80
2022-11-05T22:12:20.081Z,43.30
2022-11-05T22:16:27.506Z,45.00
2022-11-05T22:20:35.315Z,45.70
2022-11-05T22:24:43.412Z,46.00
2022-11-05T22:28:51.220Z,42.50
2022-11-05T22:32:58.918Z,40.10
2022-11-05T22:37:06.559Z,43.80
2022-11-05T22:41:17.569Z,39.70
2022-11-05T22:45:25.324Z,40.30
2022-11-05T22:49:33.335Z,43.80
2022-11-05T22:53:41.804Z,45.20
2022-11-05T22:57:49.164Z,39.90
2022-11-05T23:01:57.098Z,41.60
2022-11-05T23:06:07.730Z,36.90
2022-11-05T23:10:32.969Z,34.10
2022-11-05T23:14:41.338Z,34.40
2022-11-05T23:19:06.214Z,31.20
2022-11-05T23:23:32.268Z,30.10
2022-11-05T23:27:42.160Z,29.50
2022-11-05T23:32:08.124Z,33.80
2022-11-05T23:36:34.575Z,37.10
2022-11-05T23:40:56.109Z,30.70
2022-11-05T23:45:21.341Z,36.80
2022-11-05T23:49:30.484Z,32.20
2022-11-05T23:53:41.658Z,29.90
2022-11-05T23:57:49.304Z,26.10
